sensor_id;sensor_type;location;lat;lon;timestamp;temperature;humidity
57829;DHT22;43657;52.698;6.314;2022-10-18T00:00:42;12.20;99.90
57829;DHT22;43657;52.698;6.314;2022-10-18T00:03:08;12.20;99.90
57829;DHT22;43657;52.698;6.314;2022-10-18T00:05:34;12.20;99.90
57829;DHT22;43657;52.698;6.314;2022-10-18T00:07:59;12.10;99.90
57829;DHT22;43657;52.698;6.314;2022-10-18T00:10:26;12.10;99.90
57829;DHT22;43657;52.698;6.314;2022-10-18T00:12:51;12.00;99.90
57829;DHT22;43657;52.698;6.314;2022-10-18T00:15:17;12.00;99.90
57829;DHT22;43657;52.698;6.314;2022-10-18T00:17:43;11.90;99.90
57829;DHT22;43657;52.698;6.314;2022-10-18T00:20:09;11.90;99.90
57829;DHT22;43657;52.698;6.314;2022-10-18T00:22:37;11.90;99.90
57829;DHT22;43657;52.698;6.314;2022-10-18T00:25:03;11.90;99.90
57829;DHT22;43657;52.698;6.314;2022-10-18T00:27:30;11.90;99.90
57829;DHT22;43657;52.698;6.314;2022-10-18T00:29:56;11.90;99.90
57829;DHT22;43657;52.698;6.314;2022-10-18T00:32:22;11.90;99.90
57829;DHT22;43657;52.698;6.314;2022-10-18T00:34:47;11.90;99.90
57829;DHT22;43657;52.698;6.314;2022-10-18T00:37:13;11.80;99.90
57829;DHT22;43657;52.698;6.314;2022-10-18T00:39:39;11.80;99.90
57829;DHT22;43657;52.698;6.314;2022-10-18T00:42:04;11.80;99.90
57829;DHT22;43657;52.698;6.314;2022-10-18T00:47:02;11.80;99.90
57829;DHT22;43657;52.698;6.314;2022-10-18T00:49:37;11.80;99.90
57829;DHT22;43657;52.698;6.314;2022-10-18T00:52:07;11.80;99.90
57829;DHT22;43657;52.698;6.314;2022-10-18T00:54:37;11.80;99.90
57829;DHT22;43657;52.698;6.314;2022-10-18T00:57:05;11.70;99.90
57829;DHT22;43657;52.698;6.314;2022-10-18T00:59:31;11.70;99.90
57829;DHT22;43657;52.698;6.314;2022-10-18T01:01:57;11.80;99.90
57829;DHT22;43657;52.698;6.314;2022-10-18T01:04:23;11.80;99.90
57829;DHT22;43657;52.698;6.314;2022-10-18T01:16:00;11.90;99.90
57829;DHT22;43657;52.698;6.314;2022-10-18T01:18:47;11.80;99.90
57829;DHT22;43657;52.698;6.314;2022-10-18T01:32:31;11.80;99.90
57829;DHT22;43657;52.698;6.314;2022-10-18T01:35:02;11.80;99.90
57829;DHT22;43657;52.698;6.314;2022-10-18T01:37:29;11.90;99.90
57829;DHT22;43657;52.698;6.314;2022-10-18T01:39:57;11.80;99.90
57829;DHT22;43657;52.698;6.314;2022-10-18T01:42:24;11.70;99.90
57829;DHT22;43657;52.698;6.314;2022-10-18T01:44:51;11.70;99.90
57829;DHT22;43657;52.698;6.314;2022-10-18T01:47:17;11.70;99.90
57829;DHT22;43657;52.698;6.314;2022-10-18T01:49:44;11.70;99.90
57829;DHT22;43657;52.698;6.314;2022-10-18T01:52:14;11.70;99.90
57829;DHT22;43657;52.698;6.314;2022-10-18T01:54:43;11.60;99.90
57829;DHT22;43657;52.698;6.314;2022-10-18T01:57:18;11.60;99.90
57829;DHT22;43657;52.698;6.314;2022-10-18T02:00:15;11.70;99.90
57829;DHT22;43657;52.698;6.314;2022-10-18T02:03:00;11.60;99.90
57829;DHT22;43657;52.698;6.314;2022-10-18T02:08:34;11.60;99.90
57829;DHT22;43657;52.698;6.314;2022-10-18T02:11:10;11.60;99.90
57829;DHT22;43657;52.698;6.314;2022-10-18T02:13:42;11.50;99.90
57829;DHT22;43657;52.698;6.314;2022-10-18T02:16:14;11.50;99.90
57829;DHT22;43657;52.698;6.314;2022-10-18T02:18:54;11.50;99.90
57829;DHT22;43657;52.698;6.314;2022-10-18T02:21:21;11.40;99.90
57829;DHT22;43657;52.698;6.314;2022-10-18T02:23:50;11.50;99.90
57829;DHT22;43657;52.698;6.314;2022-10-18T02:26:17;11.50;99.90
57829;DHT22;43657;52.698;6.314;2022-10-18T02:28:44;11.50;99.90
57829;DHT22;43657;52.698;6.314;2022-10-18T02:34:19;11.50;99.90
57829;DHT22;43657;52.698;6.314;2022-10-18T02:39:28;11.40;99.90
57829;DHT22;43657;52.698;6.314;2022-10-18T02:41:56;11.40;99.90
57829;DHT22;43657;52.698;6.314;2022-10-18T02:44:34;11.40;99.90
57829;DHT22;43657;52.698;6.314;2022-10-18T02:47:01;11.40;99.90
57829;DHT22;43657;52.698;6.314;2022-10-18T02:49:27;11.40;99.90
57829;DHT22;43657;52.698;6.314;2022-10-18T02:51:59;11.40;99.90
57829;DHT22;43657;52.698;6.314;2022-10-18T02:54:25;11.40;99.90
57829;DHT22;43657;52.698;6.314;2022-10-18T02:56:54;11.40;99.90
57829;DHT22;43657;52.698;6.314;2022-10-18T02:59:20;11.40;99.90
57829;DHT22;43657;52.698;6.314;2022-10-18T03:01:49;11.30;99.90
57829;DHT22;43657;52.698;6.314;2022-10-18T03:04:15;11.40;99.90
57829;DHT22;43657;52.698;6.314;2022-10-18T03:06:44;11.40;99.90
57829;DHT22;43657;52.698;6.314;2022-10-18T03:09:09;11.40;99.90
57829;DHT22;43657;52.698;6.314;2022-10-18T03:11:35;11.40;99.90
57829;DHT22;43657;52.698;6.314;2022-10-18T03:14:02;11.40;99.90
57829;DHT22;43657;52.698;6.314;2022-10-18T03:16:27;11.40;99.90
57829;DHT22;43657;52.698;6.314;2022-10-18T03:18:53;11.40;99.90
57829;DHT22;43657;52.698;6.314;2022-10-18T03:21:19;11.40;99.90
57829;DHT22;43657;52.698;6.314;2022-10-18T03:23:44;11.40;99.90
57829;DHT22;43657;52.698;6.314;2022-10-18T03:26:13;11.40;99.90
57829;DHT22;43657;52.698;6.314;2022-10-18T03:28:39;11.40;99.90
57829;DHT22;43657;52.698;6.314;2022-10-18T03:31:04;11.40;99.90
57829;DHT22;43657;52.698;6.314;2022-10-18T03:33:31;11.40;99.90
57829;DHT22;43657;52.698;6.314;2022-10-18T03:36:03;11.40;99.90
57829;DHT22;43657;52.698;6.314;2022-10-18T03:38:31;11.40;99.90
57829;DHT22;43657;52.698;6.314;2022-10-18T03:40:57;11.40;99.90
57829;DHT22;43657;52.698;6.314;2022-10-18T03:43:26;11.40;99.90
57829;DHT22;43657;52.698;6.314;2022-10-18T03:45:57;11.40;99.90
57829;DHT22;43657;52.698;6.314;2022-10-18T03:48:23;11.40;99.90
57829;DHT22;43657;52.698;6.314;2022-10-18T03:50:49;11.40;99.90
57829;DHT22;43657;52.698;6.314;2022-10-18T03:53:15;11.40;99.90
57829;DHT22;43657;52.698;6.314;2022-10-18T03:55:41;11.40;99.90
57829;DHT22;43657;52.698;6.314;2022-10-18T03:58:06;11.40;99.90
57829;DHT22;43657;52.698;6.314;2022-10-18T04:00:35;11.40;99.90
57829;DHT22;43657;52.698;6.314;2022-10-18T04:03:02;11.40;99.90
57829;DHT22;43657;52.698;6.314;2022-10-18T04:05:28;11.40;99.90
57829;DHT22;43657;52.698;6.314;2022-10-18T04:07:55;11.40;99.90
57829;DHT22;43657;52.698;6.314;2022-10-18T04:10:22;11.40;99.90
57829;DHT22;43657;52.698;6.314;2022-10-18T04:12:48;11.40;99.90
57829;DHT22;43657;52.698;6.314;2022-10-18T04:15:16;11.40;99.90
57829;DHT22;43657;52.698;6.314;2022-10-18T04:17:41;11.40;99.90
57829;DHT22;43657;52.698;6.314;2022-10-18T04:20:08;11.40;99.90
57829;DHT22;43657;52.698;6.314;2022-10-18T04:22:33;11.40;99.90
57829;DHT22;43657;52.698;6.314;2022-10-18T04:24:59;11.40;99.90
57829;DHT22;43657;52.698;6.314;2022-10-18T04:27:28;11.40;99.90
57829;DHT22;43657;52.698;6.314;2022-10-18T04:29:56;11.40;99.90
57829;DHT22;43657;52.698;6.314;2022-10-18T04:32:22;11.50;99.90
57829;DHT22;43657;52.698;6.314;2022-10-18T04:34:47;11.50;99.90
57829;DHT22;43657;52.698;6.314;2022-10-18T04:37:16;11.50;99.90
57829;DHT22;43657;52.698;6.314;2022-10-18T04:39:41;11.50;99.90
57829;DHT22;43657;52.698;6.314;2022-10-18T04:42:11;11.50;99.90
57829;DHT22;43657;52.698;6.314;2022-10-18T04:44:36;11.50;99.90
57829;DHT22;43657;52.698;6.314;2022-10-18T04:47:03;11.60;99.90
57829;DHT22;43657;52.698;6.314;2022-10-18T04:49:32;11.60;99.90
57829;DHT22;43657;52.698;6.314;2022-10-18T04:51:58;11.60;99.90
57829;DHT22;43657;52.698;6.314;2022-10-18T04:54:23;11.60;99.90
57829;DHT22;43657;52.698;6.314;2022-10-18T04:56:49;11.60;99.90
57829;DHT22;43657;52.698;6.314;2022-10-18T04:59:18;11.60;99.90
57829;DHT22;43657;52.698;6.314;2022-10-18T05:01:46;11.70;99.90
57829;DHT22;43657;52.698;6.314;2022-10-18T05:04:12;11.60;99.90
57829;DHT22;43657;52.698;6.314;2022-10-18T05:06:38;11.70;99.90
57829;DHT22;43657;52.698;6.314;2022-10-18T05:09:04;11.60;99.90
57829;DHT22;43657;52.698;6.314;2022-10-18T05:11:30;11.60;99.90
57829;DHT22;43657;52.698;6.314;2022-10-18T05:13:56;11.60;99.90
57829;DHT22;43657;52.698;6.314;2022-10-18T05:16:22;11.70;99.90
57829;DHT22;43657;52.698;6.314;2022-10-18T05:18:47;11.60;99.90
57829;DHT22;43657;52.698;6.314;2022-10-18T05:21:14;11.60;99.90
57829;DHT22;43657;52.698;6.314;2022-10-18T05:23:43;11.60;99.90
57829;DHT22;43657;52.698;6.314;2022-10-18T05:26:12;11.60;99.90
57829;DHT22;43657;52.698;6.314;2022-10-18T05:28:38;11.70;99.90
57829;DHT22;43657;52.698;6.314;2022-10-18T05:31:05;11.60;99.90
57829;DHT22;43657;52.698;6.314;2022-10-18T05:33:34;11.60;99.90
57829;DHT22;43657;52.698;6.314;2022-10-18T05:36:02;11.60;99.90
57829;DHT22;43657;52.698;6.314;2022-10-18T05:38:28;11.60;99.90
57829;DHT22;43657;52.698;6.314;2022-10-18T05:40:57;11.60;99.90
57829;DHT22;43657;52.698;6.314;2022-10-18T05:43:26;11.60;99.90
57829;DHT22;43657;52.698;6.314;2022-10-18T05:45:59;11.60;99.90
57829;DHT22;43657;52.698;6.314;2022-10-18T05:48:28;11.60;99.90
57829;DHT22;43657;52.698;6.314;2022-10-18T05:50:57;11.60;99.90
57829;DHT22;43657;52.698;6.314;2022-10-18T05:53:23;11.60;99.90
57829;DHT22;43657;52.698;6.314;2022-10-18T05:55:49;11.50;99.90
57829;DHT22;43657;52.698;6.314;2022-10-18T05:58:15;11.50;99.90
57829;DHT22;43657;52.698;6.314;2022-10-18T06:00:40;11.40;99.90
57829;DHT22;43657;52.698;6.314;2022-10-18T06:03:06;11.50;99.90
57829;DHT22;43657;52.698;6.314;2022-10-18T06:05:32;11.50;99.90
57829;DHT22;43657;52.698;6.314;2022-10-18T06:07:58;11.40;99.90
57829;DHT22;43657;52.698;6.314;2022-10-18T06:10:24;11.40;99.90
57829;DHT22;43657;52.698;6.314;2022-10-18T06:12:51;11.40;99.90
57829;DHT22;43657;52.698;6.314;2022-10-18T06:15:20;11.40;99.90
57829;DHT22;43657;52.698;6.314;2022-10-18T06:17:48;11.30;99.90
57829;DHT22;43657;52.698;6.314;2022-10-18T06:20:13;11.30;99.90
57829;DHT22;43657;52.698;6.314;2022-10-18T06:22:39;11.20;99.90
57829;DHT22;43657;52.698;6.314;2022-10-18T06:25:08;11.30;99.90
57829;DHT22;43657;52.698;6.314;2022-10-18T06:27:34;11.20;99.90
57829;DHT22;43657;52.698;6.314;2022-10-18T06:30:00;11.10;99.90
57829;DHT22;43657;52.698;6.314;2022-10-18T06:32:25;11.20;99.90
57829;DHT22;43657;52.698;6.314;2022-10-18T06:34:53;11.20;99.90
57829;DHT22;43657;52.698;6.314;2022-10-18T06:37:21;11.10;99.90
57829;DHT22;43657;52.698;6.314;2022-10-18T06:39:50;11.10;99.90
57829;DHT22;43657;52.698;6.314;2022-10-18T06:42:16;11.10;99.90
57829;DHT22;43657;52.698;6.314;2022-10-18T06:44:41;11.20;99.90
57829;DHT22;43657;52.698;6.314;2022-10-18T06:47:07;11.10;99.90
57829;DHT22;43657;52.698;6.314;2022-10-18T06:49:36;11.10;99.90
57829;DHT22;43657;52.698;6.314;2022-10-18T06:52:04;11.20;99.90
57829;DHT22;43657;52.698;6.314;2022-10-18T06:54:32;11.10;99.90
57829;DHT22;43657;52.698;6.314;2022-10-18T06:57:03;11.10;99.90
57829;DHT22;43657;52.698;6.314;2022-10-18T06:59:34;11.10;99.90
57829;DHT22;43657;52.698;6.314;2022-10-18T07:02:14;11.10;99.90
57829;DHT22;43657;52.698;6.314;2022-10-18T07:04:49;11.20;99.90
57829;DHT22;43657;52.698;6.314;2022-10-18T07:07:18;11.10;99.90
57829;DHT22;43657;52.698;6.314;2022-10-18T07:09:55;11.20;99.90
57829;DHT22;43657;52.698;6.314;2022-10-18T07:12:30;11.00;99.90
57829;DHT22;43657;52.698;6.314;2022-10-18T07:14:55;11.10;99.90
57829;DHT22;43657;52.698;6.314;2022-10-18T07:17:21;11.10;99.90
57829;DHT22;43657;52.698;6.314;2022-10-18T07:19:47;11.10;99.90
57829;DHT22;43657;52.698;6.314;2022-10-18T07:22:13;11.10;99.90
57829;DHT22;43657;52.698;6.314;2022-10-18T07:24:39;11.20;99.90
57829;DHT22;43657;52.698;6.314;2022-10-18T07:27:06;11.20;99.90
57829;DHT22;43657;52.698;6.314;2022-10-18T07:29:34;11.20;99.90
57829;DHT22;43657;52.698;6.314;2022-10-18T07:32:03;11.20;99.90
57829;DHT22;43657;52.698;6.314;2022-10-18T07:34:32;11.20;99.90
57829;DHT22;43657;52.698;6.314;2022-10-18T07:37:00;11.20;99.90
57829;DHT22;43657;52.698;6.314;2022-10-18T07:39:30;11.20;99.90
57829;DHT22;43657;52.698;6.314;2022-10-18T07:41:56;11.20;99.90
57829;DHT22;43657;52.698;6.314;2022-10-18T07:44:22;11.20;99.90
57829;DHT22;43657;52.698;6.314;2022-10-18T07:46:48;11.20;99.90
57829;DHT22;43657;52.698;6.314;2022-10-18T07:49:13;11.20;99.90
57829;DHT22;43657;52.698;6.314;2022-10-18T07:51:39;11.20;99.90
57829;DHT22;43657;52.698;6.314;2022-10-18T07:54:08;11.30;99.90
57829;DHT22;43657;52.698;6.314;2022-10-18T07:56:34;11.30;99.90
57829;DHT22;43657;52.698;6.314;2022-10-18T07:59:00;11.40;99.90
57829;DHT22;43657;52.698;6.314;2022-10-18T08:01:25;11.40;99.90
57829;DHT22;43657;52.698;6.314;2022-10-18T08:03:51;11.50;99.90
57829;DHT22;43657;52.698;6.314;2022-10-18T08:06:19;11.60;99.90
57829;DHT22;43657;52.698;6.314;2022-10-18T08:08:45;11.60;99.90
57829;DHT22;43657;52.698;6.314;2022-10-18T08:11:16;11.80;99.90
57829;DHT22;43657;52.698;6.314;2022-10-18T08:13:42;11.80;99.90
57829;DHT22;43657;52.698;6.314;2022-10-18T08:16:14;11.90;99.90
57829;DHT22;43657;52.698;6.314;2022-10-18T08:18:40;11.90;99.90
57829;DHT22;43657;52.698;6.314;2022-10-18T08:21:08;12.00;99.90
57829;DHT22;43657;52.698;6.314;2022-10-18T08:23:34;12.10;99.90
57829;DHT22;43657;52.698;6.314;2022-10-18T08:26:08;12.10;99.90
57829;DHT22;43657;52.698;6.314;2022-10-18T08:28:34;12.20;99.90
57829;DHT22;43657;52.698;6.314;2022-10-18T08:31:06;12.30;99.90
57829;DHT22;43657;52.698;6.314;2022-10-18T08:33:32;12.30;99.90
57829;DHT22;43657;52.698;6.314;2022-10-18T08:36:02;12.30;99.90
57829;DHT22;43657;52.698;6.314;2022-10-18T08:38:30;12.30;99.90
57829;DHT22;43657;52.698;6.314;2022-10-18T08:40:59;12.30;99.90
57829;DHT22;43657;52.698;6.314;2022-10-18T08:43:33;12.40;99.90
57829;DHT22;43657;52.698;6.314;2022-10-18T08:46:01;12.40;99.90
57829;DHT22;43657;52.698;6.314;2022-10-18T08:48:38;12.40;99.90
57829;DHT22;43657;52.698;6.314;2022-10-18T08:51:20;12.50;99.90
57829;DHT22;43657;52.698;6.314;2022-10-18T08:54:17;12.60;99.90
57829;DHT22;43657;52.698;6.314;2022-10-18T08:57:00;12.70;99.90
57829;DHT22;43657;52.698;6.314;2022-10-18T08:59:30;12.70;99.90
57829;DHT22;43657;52.698;6.314;2022-10-18T09:15:58;12.90;99.90
57829;DHT22;43657;52.698;6.314;2022-10-18T09:21:27;13.00;99.90
57829;DHT22;43657;52.698;6.314;2022-10-18T09:24:25;13.00;99.90
57829;DHT22;43657;52.698;6.314;2022-10-18T09:27:04;13.10;99.90
57829;DHT22;43657;52.698;6.314;2022-10-18T09:35:24;13.50;99.90
57829;DHT22;43657;52.698;6.314;2022-10-18T09:38:01;13.60;99.90
57829;DHT22;43657;52.698;6.314;2022-10-18T09:40:31;13.80;99.90
57829;DHT22;43657;52.698;6.314;2022-10-18T09:43:05;13.90;99.90
57829;DHT22;43657;52.698;6.314;2022-10-18T09:45:36;14.00;99.90
57829;DHT22;43657;52.698;6.314;2022-10-18T09:48:11;14.00;99.90
57829;DHT22;43657;52.698;6.314;2022-10-18T09:50:41;14.20;99.90
57829;DHT22;43657;52.698;6.314;2022-10-18T09:53:15;14.20;99.90
57829;DHT22;43657;52.698;6.314;2022-10-18T09:56:03;14.40;99.90
57829;DHT22;43657;52.698;6.314;2022-10-18T09:58:49;14.40;99.90
57829;DHT22;43657;52.698;6.314;2022-10-18T10:01:26;14.50;99.90
57829;DHT22;43657;52.698;6.314;2022-10-18T10:03:53;14.50;99.90
57829;DHT22;43657;52.698;6.314;2022-10-18T10:06:37;14.60;99.90
57829;DHT22;43657;52.698;6.314;2022-10-18T10:09:15;14.90;99.90
57829;DHT22;43657;52.698;6.314;2022-10-18T10:11:49;15.00;99.90
57829;DHT22;43657;52.698;6.314;2022-10-18T10:14:20;15.30;99.90
57829;DHT22;43657;52.698;6.314;2022-10-18T10:19:21;15.50;99.90
57829;DHT22;43657;52.698;6.314;2022-10-18T10:21:50;15.60;99.90
57829;DHT22;43657;52.698;6.314;2022-10-18T10:24:28;15.80;99.90
57829;DHT22;43657;52.698;6.314;2022-10-18T10:27:03;15.90;99.90
57829;DHT22;43657;52.698;6.314;2022-10-18T10:32:12;16.30;99.90
57829;DHT22;43657;52.698;6.314;2022-10-18T10:34:38;16.40;99.90
57829;DHT22;43657;52.698;6.314;2022-10-18T10:37:22;16.50;99.90
57829;DHT22;43657;52.698;6.314;2022-10-18T10:41:13;16.50;99.90
57829;DHT22;43657;52.698;6.314;2022-10-18T10:43:13;16.70;99.90
57829;DHT22;43657;52.698;6.314;2022-10-18T10:48:23;17.00;99.90
57829;DHT22;43657;52.698;6.314;2022-10-18T10:51:07;17.10;99.90
57829;DHT22;43657;52.698;6.314;2022-10-18T10:54:05;17.20;99.90
57829;DHT22;43657;52.698;6.314;2022-10-18T10:59:22;17.20;99.90
57829;DHT22;43657;52.698;6.314;2022-10-18T11:01:48;17.20;99.90
57829;DHT22;43657;52.698;6.314;2022-10-18T11:04:29;17.20;99.90
57829;DHT22;43657;52.698;6.314;2022-10-18T11:07:19;17.20;99.90
57829;DHT22;43657;52.698;6.314;2022-10-18T11:12:46;17.40;99.90
57829;DHT22;43657;52.698;6.314;2022-10-18T11:17:59;17.50;99.90
57829;DHT22;43657;52.698;6.314;2022-10-18T11:20:32;17.60;99.90
57829;DHT22;43657;52.698;6.314;2022-10-18T11:23:06;17.60;99.90
57829;DHT22;43657;52.698;6.314;2022-10-18T11:30:39;17.70;99.90
57829;DHT22;43657;52.698;6.314;2022-10-18T11:41:36;18.10;99.90
57829;DHT22;43657;52.698;6.314;2022-10-18T12:03:12;19.30;99.90
57829;DHT22;43657;52.698;6.314;2022-10-18T12:05:42;19.30;99.90
57829;DHT22;43657;52.698;6.314;2022-10-18T12:08:24;19.20;99.90
57829;DHT22;43657;52.698;6.314;2022-10-18T12:10:55;19.00;99.90
57829;DHT22;43657;52.698;6.314;2022-10-18T12:13:46;18.90;99.90
57829;DHT22;43657;52.698;6.314;2022-10-18T12:16:14;19.00;99.90
57829;DHT22;43657;52.698;6.314;2022-10-18T12:18:56;19.10;99.90
57829;DHT22;43657;52.698;6.314;2022-10-18T12:21:25;19.30;99.90
57829;DHT22;43657;52.698;6.314;2022-10-18T12:24:05;19.40;99.90
57829;DHT22;43657;52.698;6.314;2022-10-18T12:26:32;19.60;99.90
57829;DHT22;43657;52.698;6.314;2022-10-18T12:31:49;20.00;99.90
57829;DHT22;43657;52.698;6.314;2022-10-18T12:34:21;20.40;99.90
57829;DHT22;43657;52.698;6.314;2022-10-18T12:37:01;20.50;99.90
57829;DHT22;43657;52.698;6.314;2022-10-18T12:39:41;20.40;99.90
57829;DHT22;43657;52.698;6.314;2022-10-18T12:42:20;20.10;99.90
57829;DHT22;43657;52.698;6.314;2022-10-18T12:44:46;19.60;99.90
57829;DHT22;43657;52.698;6.314;2022-10-18T12:47:23;19.40;99.90
57829;DHT22;43657;52.698;6.314;2022-10-18T12:50:03;19.00;99.90
57829;DHT22;43657;52.698;6.314;2022-10-18T12:52:30;18.40;99.90
57829;DHT22;43657;52.698;6.314;2022-10-18T12:55:28;18.20;99.90
57829;DHT22;43657;52.698;6.314;2022-10-18T13:24:35;17.90;99.90
57829;DHT22;43657;52.698;6.314;2022-10-18T13:27:45;17.70;99.90
57829;DHT22;43657;52.698;6.314;2022-10-18T13:29:59;17.60;99.90
57829;DHT22;43657;52.698;6.314;2022-10-18T13:32:51;17.50;99.90
57829;DHT22;43657;52.698;6.314;2022-10-18T13:38:03;17.20;99.90
57829;DHT22;43657;52.698;6.314;2022-10-18T13:40:29;17.00;99.90
57829;DHT22;43657;52.698;6.314;2022-10-18T13:42:55;16.80;99.90
57829;DHT22;43657;52.698;6.314;2022-10-18T13:47:56;16.60;99.90
57829;DHT22;43657;52.698;6.314;2022-10-18T13:50:35;16.60;99.90
57829;DHT22;43657;52.698;6.314;2022-10-18T14:06:31;16.30;99.90
57829;DHT22;43657;52.698;6.314;2022-10-18T14:09:22;16.30;99.90
57829;DHT22;43657;52.698;6.314;2022-10-18T14:12:06;16.50;99.90
57829;DHT22;43657;52.698;6.314;2022-10-18T14:14:44;16.40;99.90
57829;DHT22;43657;52.698;6.314;2022-10-18T14:17:38;16.30;99.90
57829;DHT22;43657;52.698;6.314;2022-10-18T14:23:24;16.00;99.90
57829;DHT22;43657;52.698;6.314;2022-10-18T14:26:05;15.80;99.90
57829;DHT22;43657;52.698;6.314;2022-10-18T14:28:41;15.70;99.90
57829;DHT22;43657;52.698;6.314;2022-10-18T14:31:17;15.70;99.90
57829;DHT22;43657;52.698;6.314;2022-10-18T14:33:50;15.60;99.90
57829;DHT22;43657;52.698;6.314;2022-10-18T14:36:39;15.60;99.90
57829;DHT22;43657;52.698;6.314;2022-10-18T14:39:29;15.40;99.90
57829;DHT22;43657;52.698;6.314;2022-10-18T14:41:57;15.40;99.90
57829;DHT22;43657;52.698;6.314;2022-10-18T14:44:32;15.30;99.90
57829;DHT22;43657;52.698;6.314;2022-10-18T14:47:29;15.30;99.90
57829;DHT22;43657;52.698;6.314;2022-10-18T14:50:24;15.20;99.90
57829;DHT22;43657;52.698;6.314;2022-10-18T14:53:10;15.20;99.90
57829;DHT22;43657;52.698;6.314;2022-10-18T14:56:02;15.10;99.90
57829;DHT22;43657;52.698;6.314;2022-10-18T14:58:36;15.10;99.90
57829;DHT22;43657;52.698;6.314;2022-10-18T15:01:16;15.10;99.90
57829;DHT22;43657;52.698;6.314;2022-10-18T15:03:42;15.00;99.90
57829;DHT22;43657;52.698;6.314;2022-10-18T15:06:17;15.00;99.90
57829;DHT22;43657;52.698;6.314;2022-10-18T15:08:50;14.90;99.90
57829;DHT22;43657;52.698;6.314;2022-10-18T15:11:24;14.80;99.90
57829;DHT22;43657;52.698;6.314;2022-10-18T15:13:55;14.80;99.90
57829;DHT22;43657;52.698;6.314;2022-10-18T15:16:29;14.60;99.90
57829;DHT22;43657;52.698;6.314;2022-10-18T15:19:26;14.50;99.90
57829;DHT22;43657;52.698;6.314;2022-10-18T15:22:02;14.40;99.90
57829;DHT22;43657;52.698;6.314;2022-10-18T15:24:38;14.30;99.90
57829;DHT22;43657;52.698;6.314;2022-10-18T15:29:38;14.10;99.90
57829;DHT22;43657;52.698;6.314;2022-10-18T15:32:12;14.10;99.90
57829;DHT22;43657;52.698;6.314;2022-10-18T15:34:39;14.00;99.90
57829;DHT22;43657;52.698;6.314;2022-10-18T15:37:16;13.90;99.90
57829;DHT22;43657;52.698;6.314;2022-10-18T15:39:42;13.80;99.90
57829;DHT22;43657;52.698;6.314;2022-10-18T15:42:37;13.70;99.90
57829;DHT22;43657;52.698;6.314;2022-10-18T15:53:22;13.40;99.90
57829;DHT22;43657;52.698;6.314;2022-10-18T15:56:01;13.30;99.90
57829;DHT22;43657;52.698;6.314;2022-10-18T15:58:37;13.20;99.90
57829;DHT22;43657;52.698;6.314;2022-10-18T16:01:22;13.10;99.90
57829;DHT22;43657;52.698;6.314;2022-10-18T16:03:51;13.10;99.90
57829;DHT22;43657;52.698;6.314;2022-10-18T16:06:19;13.00;99.90
57829;DHT22;43657;52.698;6.314;2022-10-18T16:08:50;12.90;99.90
57829;DHT22;43657;52.698;6.314;2022-10-18T16:11:22;12.80;99.90
57829;DHT22;43657;52.698;6.314;2022-10-18T16:13:51;12.70;99.90
57829;DHT22;43657;52.698;6.314;2022-10-18T16:16:20;12.60;99.90
57829;DHT22;43657;52.698;6.314;2022-10-18T16:18:55;12.60;99.90
57829;DHT22;43657;52.698;6.314;2022-10-18T16:21:33;12.50;99.90
57829;DHT22;43657;52.698;6.314;2022-10-18T16:24:16;12.40;99.90
57829;DHT22;43657;52.698;6.314;2022-10-18T16:26:47;12.30;99.90
57829;DHT22;43657;52.698;6.314;2022-10-18T16:29:17;12.20;99.90
57829;DHT22;43657;52.698;6.314;2022-10-18T16:31:49;12.10;99.90
57829;DHT22;43657;52.698;6.314;2022-10-18T16:34:16;12.00;99.90
57829;DHT22;43657;52.698;6.314;2022-10-18T16:36:43;12.00;99.90
57829;DHT22;43657;52.698;6.314;2022-10-18T16:39:17;11.90;99.90
57829;DHT22;43657;52.698;6.314;2022-10-18T16:41:46;11.80;99.90
57829;DHT22;43657;52.698;6.314;2022-10-18T16:44:13;11.70;99.90
57829;DHT22;43657;52.698;6.314;2022-10-18T16:46:41;11.70;99.90
57829;DHT22;43657;52.698;6.314;2022-10-18T16:49:22;11.70;99.90
57829;DHT22;43657;52.698;6.314;2022-10-18T16:52:05;11.50;99.90
57829;DHT22;43657;52.698;6.314;2022-10-18T16:54:34;11.60;99.90
57829;DHT22;43657;52.698;6.314;2022-10-18T16:57:00;11.50;99.90
57829;DHT22;43657;52.698;6.314;2022-10-18T16:59:28;11.50;99.90
57829;DHT22;43657;52.698;6.314;2022-10-18T17:01:57;11.40;99.90
57829;DHT22;43657;52.698;6.314;2022-10-18T17:04:35;11.40;99.90
57829;DHT22;43657;52.698;6.314;2022-10-18T17:07:02;11.40;99.90
57829;DHT22;43657;52.698;6.314;2022-10-18T17:09:41;11.40;99.90
57829;DHT22;43657;52.698;6.314;2022-10-18T17:12:07;11.40;99.90
57829;DHT22;43657;52.698;6.314;2022-10-18T17:14:32;11.30;99.90
57829;DHT22;43657;52.698;6.314;2022-10-18T17:17:01;11.30;99.90
57829;DHT22;43657;52.698;6.314;2022-10-18T17:19:27;11.20;99.90
57829;DHT22;43657;52.698;6.314;2022-10-18T17:22:00;11.20;99.90
57829;DHT22;43657;52.698;6.314;2022-10-18T17:24:28;11.20;99.90
57829;DHT22;43657;52.698;6.314;2022-10-18T17:26:57;11.10;99.90
57829;DHT22;43657;52.698;6.314;2022-10-18T17:29:26;11.10;99.90
57829;DHT22;43657;52.698;6.314;2022-10-18T17:31:55;11.10;99.90
57829;DHT22;43657;52.698;6.314;2022-10-18T17:34:20;11.10;99.90
57829;DHT22;43657;52.698;6.314;2022-10-18T17:36:46;11.10;99.90
57829;DHT22;43657;52.698;6.314;2022-10-18T17:39:17;11.00;99.90
57829;DHT22;43657;52.698;6.314;2022-10-18T17:41:43;11.00;99.90
57829;DHT22;43657;52.698;6.314;2022-10-18T17:44:09;11.00;99.90
57829;DHT22;43657;52.698;6.314;2022-10-18T17:46:34;11.10;99.90
57829;DHT22;43657;52.698;6.314;2022-10-18T17:49:00;11.00;99.90
57829;DHT22;43657;52.698;6.314;2022-10-18T17:51:26;11.00;99.90
57829;DHT22;43657;52.698;6.314;2022-10-18T17:53:52;10.90;99.90
57829;DHT22;43657;52.698;6.314;2022-10-18T17:56:18;10.90;99.90
57829;DHT22;43657;52.698;6.314;2022-10-18T17:58:44;10.90;99.90
57829;DHT22;43657;52.698;6.314;2022-10-18T18:01:15;10.90;99.90
57829;DHT22;43657;52.698;6.314;2022-10-18T18:03:41;10.80;99.90
57829;DHT22;43657;52.698;6.314;2022-10-18T18:06:14;10.80;99.90
57829;DHT22;43657;52.698;6.314;2022-10-18T18:08:40;10.80;99.90
57829;DHT22;43657;52.698;6.314;2022-10-18T18:11:05;10.90;99.90
57829;DHT22;43657;52.698;6.314;2022-10-18T18:13:31;10.90;99.90
57829;DHT22;43657;52.698;6.314;2022-10-18T18:15:57;10.80;99.90
57829;DHT22;43657;52.698;6.314;2022-10-18T18:18:23;10.90;99.90
57829;DHT22;43657;52.698;6.314;2022-10-18T18:20:49;10.90;99.90
57829;DHT22;43657;52.698;6.314;2022-10-18T18:23:15;10.80;99.90
57829;DHT22;43657;52.698;6.314;2022-10-18T18:25:53;10.80;99.90
57829;DHT22;43657;52.698;6.314;2022-10-18T18:28:21;10.80;99.90
57829;DHT22;43657;52.698;6.314;2022-10-18T18:30:46;10.80;99.90
57829;DHT22;43657;52.698;6.314;2022-10-18T18:33:12;10.70;99.90
57829;DHT22;43657;52.698;6.314;2022-10-18T18:35:38;10.70;99.90
57829;DHT22;43657;52.698;6.314;2022-10-18T18:38:06;10.70;99.90